Latest Weather Observations for Ceduna

IDS60801

Issued at 6:01 pm CDT Tuesday 17 October 2017 (issued every 30 minutes, with the page automatically refreshed every 10 minutes)

About weather observations | Map of weather stations | Latest weather observations for SA | Other Formats
Station Details ID: 018012 Name: CEDUNA AMO Lat: -32.13 Lon: 133.70 Height: 15.3 m
Data from the previous 72 hours. | See also: Recent months at Ceduna
Date/Time
CDT
Temp
°C
App
Temp
°C
Dew
Point
°C
Rel
Hum
%
Delta-T
°C
Wind Press
QNH
hPa
Press
MSL
hPa
Rain since
9am
mm
Dir  Spd
km/h
Gust
km/h
Spd
kts
Gust
kts
17/06:00pm 35.3 29.6 4.8 15 16.3 NNE 24 33 13 18 1007.8 1007.8 0.0
17/05:30pm 35.5 30.0 3.9 14 16.7 NNE 22 32 12 17 1007.9 1007.9 0.0
17/05:00pm 35.9 31.6 5.2 15 16.6 NNE 17 24 9 13 1007.8 1007.8 0.0
17/04:30pm 35.7 30.8 5.1 15 16.5 NNE 20 35 11 19 1008.1 1008.1 0.0
17/04:00pm 36.1 30.3 4.4 14 16.9 N 24 39 13 21 1008.2 1008.2 0.0
17/03:30pm 36.1 30.5 5.4 15 16.7 N 24 33 13 18 1008.8 1008.8 0.0
17/03:00pm 35.5 28.8 5.8 16 16.2 NNE 30 57 16 31 1009.0 1009.0 0.0
17/02:43pm 35.5 29.2 5.8 16 16.1 N 28 46 15 25 1009.1 1009.1 0.0
17/02:30pm 35.6 29.0 5.9 16 16.2 NNE 30 44 16 24 1009.1 1009.1 0.0
17/02:00pm 35.3 28.1 5.7 16 16.0 N 33 48 18 26 1009.5 1009.5 0.0
17/01:50pm 35.0 27.9 5.4 16 15.9 N 32 50 17 27 1009.5 1009.5 0.0
17/01:30pm 34.8 27.3 6.2 17 15.6 N 35 50 19 27 1009.8 1009.8 0.0
17/01:00pm 34.0 25.6 5.5 17 15.3 N 39 57 21 31 1009.8 1009.8 0.0
17/12:30pm 33.6 25.1 6.8 19 14.7 N 41 56 22 30 1010.3 1010.3 0.0
17/12:04pm 33.2 24.6 6.5 19 14.5 NNE 41 59 22 32 1010.6 1010.6 0.0
17/12:00pm 33.4 25.4 7.4 20 14.3 NNE 39 54 21 29 1010.7 1010.7 0.0
17/11:30am 32.3 23.5 7.2 21 13.7 NNE 43 61 23 33 1011.0 1011.0 0.0
17/11:23am 32.6 23.8 7.4 21 13.8 NNE 43 61 23 33 1011.0 1011.0 0.0
17/11:00am 31.8 22.5 7.5 22 13.3 N 46 57 25 31 1011.3 1011.3 0.0
17/10:30am 31.1 22.4 7.5 23 12.9 NNE 43 61 23 33 1011.5 1011.5 0.0
17/10:05am 30.4 21.7 7.6 24 12.4 NNE 43 61 23 33 1011.6 1011.6 0.0
17/10:00am 30.7 21.6 8.4 25 12.3 NNE 46 61 25 33 1011.6 1011.6 0.0
17/09:47am 29.6 20.3 7.5 25 12.0 NNE 46 69 25 37 1011.6 1011.6 0.0
17/09:30am 29.1 20.2 7.7 26 11.6 NNE 44 61 24 33 1011.7 1011.7 0.0
17/09:22am 29.0 20.4 8.1 27 11.4 NNE 43 61 23 33 1011.7 1011.7 0.0
17/09:00am 28.4 20.1 7.6 27 11.2 NNE 41 52 22 28 1011.8 1011.8 0.0
17/08:30am 27.3 19.2 7.2 28 10.7 NNE 39 48 21 26 1011.7 1011.7 0.0
17/08:00am 25.9 19.0 6.5 29 10.1 NNE 32 39 17 21 1011.5 1011.5 0.0
17/07:30am 24.5 18.7 6.3 31 9.4 NNE 26 33 14 18 1011.4 1011.4 0.0
17/07:00am 23.9 17.6 5.8 31 9.2 NNE 28 35 15 19 1010.9 1010.9 0.0
17/06:30am 23.8 17.8 5.2 30 9.4 NNE 26 32 14 17 1010.6 1010.6 0.0
17/06:00am 24.0 18.0 5.4 30 9.4 NNE 26 35 14 19 1010.6 1010.6 0.0
17/05:30am 24.2 18.2 5.5 30 9.5 NNE 26 32 14 17 1010.5 1010.5 0.0
17/05:00am 24.4 17.7 5.7 30 9.5 NE 30 37 16 20 1010.1 1010.1 0.0
17/04:30am 23.5 17.6 5.9 32 9.0 NE 26 32 14 17 1010.4 1010.4 0.0
17/04:00am 23.0 17.6 6.3 34 8.5 NE 24 30 13 16 1010.5 1010.5 0.0
17/03:30am 22.9 17.8 5.8 33 8.6 NE 22 28 12 15 1010.7 1010.7 0.0
17/03:00am 23.8 18.3 6.1 32 9.1 NE 24 30 13 16 1010.7 1010.7 0.0
17/02:30am 22.6 18.1 6.0 34 8.4 NE 19 24 10 13 1011.1 1011.1 0.0
17/02:00am 22.1 17.9 5.5 34 8.3 NE 17 22 9 12 1011.4 1011.4 0.0
17/01:30am 22.6 17.9 6.0 34 8.4 NE 20 26 11 14 1011.5 1011.5 0.0
17/01:00am 22.1 17.9 5.9 35 8.2 NNE 17 19 9 10 1011.8 1011.8 0.0
17/12:30am 23.6 18.8 5.5 31 9.1 NE 20 26 11 14 1011.8 1011.8 0.0
17/12:00am 23.0 18.7 5.4 32 8.8 NE 17 20 9 11 1012.2 1012.2 0.0
 
Date/Time
CDT
Temp
°C
App
Temp
°C
Dew
Point
°C
Rel
Hum
%
Delta-T
°C
Wind Press
QNH
hPa
Press
MSL
hPa
Rain since
9am
mm
Dir  Spd
km/h
Gust
km/h
Spd
kts
Gust
kts
16/11:30pm 23.0 18.4 5.4 32 8.8 NE 19 20 10 11 1012.3 1012.3 0.0
16/11:00pm 23.0 18.6 5.0 31 9.0 NE 17 20 9 11 1012.2 1012.2 0.0
16/10:30pm 23.0 18.6 5.0 31 9.0 NE 17 20 9 11 1012.1 1012.1 0.0
16/10:00pm 23.6 18.9 5.0 30 9.3 NE 19 20 10 11 1011.9 1011.9 0.0
16/09:30pm 23.1 18.8 5.1 31 9.0 NE 17 19 9 10 1011.8 1011.8 0.0
16/09:00pm 24.4 20.0 4.7 28 9.9 NE 17 19 9 10 1011.4 1011.4 0.0
16/08:30pm 26.5 22.0 4.3 24 11.2 NE 17 19 9 10 1011.0 1011.0 0.0
16/08:00pm 29.5 24.9 3.5 19 13.1 NE 17 20 9 11 1010.7 1010.7 0.0
16/07:30pm 32.1 26.8 3.1 16 14.8 NNE 20 30 11 16 1010.4 1010.4 0.0
16/07:00pm 33.2 27.2 3.1 15 15.5 NNE 24 33 13 18 1010.3 1010.3 0.0
16/06:30pm 34.0 27.9 2.8 14 16.0 NE 24 32 13 17 1010.3 1010.3 0.0
16/06:00pm 34.7 28.3 3.3 14 16.3 NNE 26 35 14 19 1010.3 1010.3 0.0
16/05:30pm 34.5 27.7 3.1 14 16.3 NNE 28 37 15 20 1010.3 1010.3 0.0
16/05:00pm 34.4 27.6 3.1 14 16.2 N 28 48 15 26 1010.4 1010.4 0.0
16/04:58pm 34.6 27.8 3.2 14 16.3 N 28 48 15 26 1010.4 1010.4 0.0
16/04:30pm 34.7 27.8 2.3 13 16.6 NNE 28 41 15 22 1010.7 1010.7 0.0
16/04:03pm 35.0 27.9 3.5 14 16.5 NNE 30 48 16 26 1011.0 1011.0 0.0
16/04:00pm 34.6 26.9 2.2 13 16.5 NNE 32 48 17 26 1011.0 1011.0 0.0
16/03:51pm 34.8 27.9 2.3 13 16.6 NE 28 48 15 26 1011.1 1011.1 0.0
16/03:30pm 34.2 27.2 1.9 13 16.4 NE 28 37 15 20 1011.3 1011.3 0.0
16/03:00pm 34.5 28.1 3.1 14 16.3 NE 26 35 14 19 1011.8 1011.8 0.0
16/02:30pm 33.3 26.9 1.2 13 16.0 NNE 24 39 13 21 1012.2 1012.2 0.0
16/02:00pm 33.6 26.5 1.4 13 16.1 NNE 28 37 15 20 1012.8 1012.8 0.0
16/01:39pm 34.1 27.2 2.8 14 16.1 NNE 28 46 15 25 1013.0 1013.0 0.0
16/01:30pm 33.3 26.1 3.2 15 15.5 NNE 30 39 16 21 1013.3 1013.3 0.0
16/01:00pm 32.2 24.9 2.3 15 15.1 NNE 30 41 16 22 1013.8 1013.8 0.0
16/12:30pm 32.3 25.7 4.2 17 14.6 NNE 28 43 15 23 1014.4 1014.4 0.0
16/12:00pm 31.9 25.0 4.6 18 14.3 N 30 43 16 23 1014.8 1014.8 0.0
16/11:47am 31.7 25.2 4.5 18 14.2 NNE 28 46 15 25 1015.0 1015.0 0.0
16/11:30am 31.1 25.4 4.8 19 13.7 NNE 24 39 13 21 1015.4 1015.4 0.0
16/11:00am 30.1 24.1 5.4 21 12.9 NNE 26 37 14 20 1015.7 1015.7 0.0
16/10:30am 29.0 23.6 6.4 24 12.0 NNE 24 35 13 19 1016.1 1016.1 0.0
16/10:00am 27.8 22.5 6.6 26 11.2 NE 24 30 13 16 1016.2 1016.2 0.0
16/09:30am 25.4 21.2 7.5 32 9.5 ENE 19 26 10 14 1016.5 1016.5 0.0
16/09:00am 22.8 18.5 7.8 38 7.8 ENE 20 28 11 15 1016.7 1016.7 0.0
16/08:30am 19.4 15.5 7.2 45 6.2 ENE 17 22 9 12 1016.8 1016.8 0.0
16/08:00am 16.7 12.4 6.8 52 4.9 ENE 19 20 10 11 1016.7 1016.7 0.0
16/07:30am 14.0 9.9 6.4 60 3.6 ENE 17 20 9 11 1016.5 1016.5 0.0
16/07:00am 12.7 7.9 5.8 63 3.2 ENE 20 20 11 11 1016.2 1016.2 0.0
16/06:30am 13.0 8.3 5.9 62 3.3 ENE 20 22 11 12 1015.9 1015.9 0.0
16/06:00am 12.6 8.1 6.2 65 3.0 ENE 19 20 10 11 1015.9 1015.9 0.0
16/05:30am 12.8 8.5 7.0 68 2.8 ENE 19 20 10 11 1015.8 1015.8 0.0
16/05:00am 12.7 8.6 7.8 72 2.4 ENE 19 20 10 11 1015.9 1015.9 0.0
16/04:30am 12.5 8.5 8.2 75 2.1 ENE 19 20 10 11 1015.9 1015.9 0.0
16/04:00am 13.2 9.3 8.5 73 2.3 ENE 19 20 10 11 1016.2 1016.2 0.0
16/03:30am 13.7 9.9 9.0 73 2.4 ENE 19 20 10 11 1016.4 1016.4 0.0
16/03:00am 14.0 10.3 9.6 75 2.3 ENE 19 20 10 11 1016.3 1016.3 0.0
16/02:30am 14.2 10.6 9.8 75 2.3 ENE 19 20 10 11 1016.6 1016.6 0.0
16/02:00am 14.0 10.5 10.2 78 2.0 ENE 19 20 10 11 1016.7 1016.7 0.0
16/01:30am 13.9 11.0 10.9 82 1.6 ENE 17 19 9 10 1016.8 1016.8 0.0
16/01:00am 12.6 11.3 10.0 84 1.3 E 7 9 4 5 1017.0 1017.0 0.0
16/12:30am 13.1 11.5 10.1 82 1.5 E 9 11 5 6 1017.3 1017.3 0.0
16/12:00am 14.0 11.6 10.2 78 2.0 E 13 15 7 8 1017.4 1017.4 0.0
 
Date/Time
CDT
Temp
°C
App
Temp
°C
Dew
Point
°C
Rel
Hum
%
Delta-T
°C
Wind Press
QNH
hPa
Press
MSL
hPa
Rain since
9am
mm
Dir  Spd
km/h
Gust
km/h
Spd
kts
Gust
kts
15/11:30pm 15.8 14.8 11.0 73 2.6 NE 7 9 4 5 1017.6 1017.6 0.0
15/11:00pm 17.2 15.1 11.2 68 3.2 E 13 15 7 8 1017.6 1017.6 0.0
15/10:30pm 17.5 15.3 10.9 65 3.5 ESE 13 17 7 9 1017.5 1017.5 0.0
15/10:00pm 18.8 16.4 12.5 67 3.5 SE 17 20 9 11 1017.5 1017.5 0.0
15/09:30pm 19.5 16.2 12.8 65 3.8 SE 22 28 12 15 1017.2 1017.2 0.0
15/09:00pm 19.9 16.3 11.9 60 4.4 SSE 22 30 12 16 1016.7 1016.7 0.0
15/08:30pm 20.6 16.4 11.2 55 5.2 SSE 24 32 13 17 1016.4 1016.4 0.0
15/08:00pm 20.4 17.4 12.1 59 4.6 SSE 19 24 10 13 1016.3 1016.3 0.0
15/07:30pm 20.7 17.1 12.9 61 4.4 SSE 24 30 13 16 1016.1 1016.1 0.0
15/07:00pm 22.5 17.2 11.3 49 6.2 SSE 30 39 16 21 1015.8 1015.8 0.0
15/06:30pm 23.4 17.3 10.5 44 7.1 SSE 33 43 18 23 1015.8 1015.8 0.0
15/06:00pm 24.0 17.9 10.3 42 7.5 SSE 33 43 18 23 1015.6 1015.6 0.0
15/05:30pm 23.6 17.3 11.0 45 7.0 SSE 35 46 19 25 1015.6 1015.6 0.0
15/05:00pm 24.7 18.9 10.9 42 7.7 S 32 41 17 22 1015.7 1015.7 0.0
15/04:30pm 26.6 20.0 7.6 30 10.1 S 32 41 17 22 1015.7 1015.7 0.0
15/04:00pm 27.4 21.3 8.3 30 10.4 S 30 37 16 20 1016.0 1016.0 0.0
15/03:30pm 27.0 20.2 6.9 28 10.6 S 32 39 17 21 1016.0 1016.0 0.0
15/03:00pm 27.6 22.7 9.9 33 9.9 S 26 32 14 17 1016.4 1016.4 0.0
15/02:30pm 28.0 22.8 7.3 27 11.1 S 24 32 13 17 1016.9 1016.9 0.0
15/02:00pm 27.9 22.7 7.2 27 11.0 SW 24 30 13 16 1017.1 1017.1 0.0
15/01:30pm 28.0 23.3 7.8 28 10.9 SSW 22 28 12 15 1017.4 1017.4 0.0
15/01:00pm 27.2 23.0 7.6 29 10.5 SSW 19 26 10 14 1017.9 1017.9 0.0
15/12:30pm 28.6 26.1 6.7 25 11.6 ESE 9 22 5 12 1018.2 1018.2 0.0
15/12:00pm 27.7 24.9 7.0 27 11.0 NNE 11 20 6 11 1018.5 1018.5 0.0
15/11:30am 27.0 23.6 7.5 29 10.4 NE 15 22 8 12 1018.9 1018.9 0.0
15/11:00am 26.5 22.1 7.5 30 10.1 NNE 20 28 11 15 1019.2 1019.2 0.0
15/10:30am 24.9 20.5 7.5 33 9.2 NE 20 30 11 16 1019.5 1019.5 0.0
15/10:00am 23.9 20.0 8.7 38 8.1 NE 19 24 10 13 1019.6 1019.6 0.0
15/09:30am 21.5 17.9 10.0 48 6.2 ENE 19 24 10 13 1019.8 1019.8 0.0
15/09:00am 19.5 16.7 10.0 54 5.1 ENE 15 22 8 12 1019.8 1019.8 0.0
15/08:30am 16.1 13.9 9.3 64 3.5 ENE 11 15 6 8 1019.8 1019.8 0.0
15/08:00am 13.4 11.4 8.7 73 2.4 ESE 9 13 5 7 1019.6 1019.6 0.0
15/07:30am 10.6 8.4 8.0 84 1.3 E 9 11 5 6 1019.4 1019.4 0.0
15/07:00am 8.8 8.0 6.6 86 1.0 CALM 0 2 0 1 1019.2 1019.2 0.0
15/06:30am 9.0 7.1 6.8 86 1.0 ESE 6 6 3 3 1018.8 1018.8 0.0
15/06:00am 9.4 6.2 6.7 83 1.3 ESE 13 13 7 7 1018.7 1018.7 0.0
15/05:30am 10.5 8.8 7.4 81 1.5 ESE 6 11 3 6 1018.7 1018.7 0.0
15/05:00am 11.3 8.0 8.0 80 1.6 ESE 15 17 8 9 1018.5 1018.5 0.0
15/04:30am 11.9 8.3 8.2 78 1.8 E 17 19 9 10 1018.7 1018.7 0.0
15/04:00am 12.4 9.5 8.3 76 2.0 E 13 17 7 9 1018.7 1018.7 0.0
15/03:30am 13.2 9.3 8.5 73 2.3 ESE 19 22 10 12 1018.7 1018.7 0.0
15/03:00am 13.1 9.9 8.6 74 2.2 E 15 19 8 10 1018.8 1018.8 0.0
15/02:30am 13.7 9.8 8.7 72 2.5 ESE 19 22 10 12 1018.8 1018.8 0.0
15/02:00am 14.0 10.6 9.2 73 2.4 ESE 17 20 9 11 1019.1 1019.1 0.0
15/01:30am 14.6 11.0 10.0 74 2.4 ESE 19 22 10 12 1019.4 1019.4 0.0
15/01:00am 14.5 11.6 10.9 79 1.9 ESE 17 20 9 11 1019.5 1019.5 0.0
15/12:30am 14.0 12.0 11.5 85 1.3 ESE 13 17 7 9 1019.7 1019.7 0.0
15/12:00am 14.9 12.7 12.0 83 1.6 E 15 19 8 10 1020.0 1020.0 0.0
 
Date/Time
CDT
Temp
°C
App
Temp
°C
Dew
Point
°C
Rel
Hum
%
Delta-T
°C
Wind Press
QNH
hPa
Press
MSL
hPa
Rain since
9am
mm
Dir  Spd
km/h
Gust
km/h
Spd
kts
Gust
kts
14/11:30pm 15.4 13.3 12.5 83 1.6 ESE 15 19 8 10 1020.0 1020.0 0.0
14/11:00pm 15.8 13.1 12.9 83 1.6 SE 19 22 10 12 1020.0 1020.0 0.0
14/10:30pm 16.5 13.8 13.6 83 1.6 SE 20 26 11 14 1019.9 1019.9 0.0
14/10:00pm 16.5 13.1 13.6 83 1.6 SSE 24 32 13 17 1019.6 1019.6 0.0
14/09:30pm 16.7 12.9 13.6 82 1.7 SSE 26 35 14 19 1019.5 1019.5 0.0
14/09:00pm 16.9 13.5 13.6 81 1.9 SSE 24 33 13 18 1019.3 1019.3 0.0
14/08:30pm 17.5 13.6 13.4 77 2.3 SSE 26 32 14 17 1019.3 1019.3 0.0
14/08:00pm 17.7 14.8 14.0 79 2.1 SSE 22 32 12 17 1019.2 1019.2 0.0
14/07:30pm 18.0 14.0 14.1 78 2.2 SSE 28 41 15 22 1018.9 1018.9 0.0
14/07:00pm 18.7 14.0 14.2 75 2.6 SSE 32 39 17 21 1018.8 1018.8 0.0
14/06:30pm 19.1 14.2 13.7 71 3.1 SSE 32 43 17 23 1018.6 1018.6 0.0

Other Formats:

Comma delimited format used in spreadsheet applications
http://www.bom.gov.au/fwo/IDS60801/IDS60801.94653.axf

JavaScript Object Notation format (JSON) in row-major order
http://www.bom.gov.au/fwo/IDS60801/IDS60801.94653.json